createdAt,value
2023-12-22T00:02:19.702Z,2.35
2023-12-22T00:04:46.727Z,2.28
2023-12-22T00:07:13.381Z,1.81
2023-12-22T00:09:40.118Z,1.56
2023-12-22T00:12:07.092Z,1.79
2023-12-22T00:14:33.742Z,1.69
2023-12-22T00:17:00.380Z,1.74
2023-12-22T00:19:27.040Z,1.55
2023-12-22T00:21:53.639Z,1.76
2023-12-22T00:24:20.227Z,1.56
2023-12-22T00:26:47.104Z,1.76
2023-12-22T00:29:13.677Z,1.44
2023-12-22T00:31:40.293Z,1.55
2023-12-22T00:34:07.119Z,1.65
2023-12-22T00:36:33.729Z,2.10
2023-12-22T00:39:00.290Z,2.15
2023-12-22T00:41:26.864Z,2.09
2023-12-22T00:43:53.489Z,1.94
2023-12-22T00:46:21.144Z,1.81
2023-12-22T00:48:47.723Z,1.99
2023-12-22T00:51:14.786Z,1.95
2023-12-22T00:53:41.360Z,1.81
2023-12-22T00:56:08.349Z,1.76
2023-12-22T00:58:35.077Z,1.19
2023-12-22T01:01:01.751Z,0.96
2023-12-22T01:03:28.444Z,0.71
2023-12-22T01:05:55.207Z,0.43
2023-12-22T01:08:22.032Z,0.44
2023-12-22T01:10:49.076Z,0.34
2023-12-22T01:13:16.564Z,0.23
2023-12-22T01:15:44.854Z,0.37
2023-12-22T01:18:12.609Z,0.28
2023-12-22T01:20:39.351Z,0.38
2023-12-22T01:23:06.018Z,0.38
2023-12-22T01:25:32.674Z,0.27
2023-12-22T01:28:00.152Z,0.31
2023-12-22T01:30:27.293Z,0.33
2023-12-22T01:32:54.115Z,0.28
2023-12-22T01:35:20.712Z,0.37
2023-12-22T01:37:49.301Z,0.28
2023-12-22T01:40:16.348Z,0.45
2023-12-22T01:42:42.994Z,0.47
2023-12-22T01:45:10.192Z,0.37
2023-12-22T01:47:37.854Z,0.49
2023-12-22T01:50:05.541Z,0.43
2023-12-22T01:52:32.776Z,0.44
2023-12-22T01:54:59.611Z,0.44
2023-12-22T01:57:26.285Z,0.55
2023-12-22T01:59:53.518Z,0.55
2023-12-22T02:02:20.375Z,0.51
2023-12-22T02:04:48.704Z,0.50
2023-12-22T02:07:16.463Z,0.58
2023-12-22T02:09:43.408Z,0.78
2023-12-22T02:12:10.206Z,0.72
2023-12-22T02:14:38.313Z,0.74
2023-12-22T02:17:28.588Z,0.75
2023-12-22T02:19:59.408Z,0.89
2023-12-22T02:22:26.198Z,0.97
2023-12-22T02:24:53.099Z,0.96
2023-12-22T02:27:46.040Z,0.96
2023-12-22T02:30:27.039Z,1.10
2023-12-22T02:33:01.520Z,1.08
2023-12-22T02:35:33.674Z,1.24
2023-12-22T02:38:04.600Z,1.27
2023-12-22T02:40:33.067Z,1.30
2023-12-22T02:43:01.505Z,1.24
2023-12-22T02:45:28.456Z,1.31
2023-12-22T02:47:55.158Z,1.48
2023-12-22T02:50:21.972Z,1.51
2023-12-22T02:52:48.622Z,1.46
2023-12-22T02:55:15.346Z,1.54
2023-12-22T02:57:42.001Z,1.70
2023-12-22T03:00:09.522Z,1.74
2023-12-22T03:02:36.220Z,2.07
2023-12-22T03:05:02.886Z,2.06
2023-12-22T03:07:29.482Z,1.95
2023-12-22T03:09:56.105Z,1.98
2023-12-22T03:12:22.779Z,2.03
2023-12-22T03:14:49.623Z,1.95
2023-12-22T03:17:16.340Z,2.08
2023-12-22T03:19:43.007Z,1.96
2023-12-22T03:22:09.619Z,1.74
2023-12-22T03:24:37.538Z,1.94
2023-12-22T03:27:04.472Z,1.97
2023-12-22T03:29:31.048Z,1.92
2023-12-22T03:31:57.674Z,1.86
2023-12-22T03:34:24.300Z,1.70
2023-12-22T03:36:51.023Z,2.25
2023-12-22T03:39:17.756Z,2.26
2023-12-22T03:41:44.544Z,2.30
2023-12-22T03:44:11.284Z,2.68
2023-12-22T03:46:38.122Z,3.02
2023-12-22T03:49:04.896Z,3.22
2023-12-22T03:51:31.704Z,3.42
2023-12-22T03:53:58.363Z,3.41
2023-12-22T03:56:24.956Z,3.69
2023-12-22T03:58:51.737Z,3.27
2023-12-22T04:01:18.593Z,3.47
2023-12-22T04:03:45.271Z,6.43
2023-12-22T04:06:11.994Z,9.19
2023-12-22T04:08:38.561Z,3.67
2023-12-22T04:11:05.247Z,3.00
2023-12-22T04:13:31.825Z,3.51
2023-12-22T04:15:58.955Z,3.31
2023-12-22T04:18:25.688Z,3.04
2023-12-22T04:20:54.909Z,3.44
2023-12-22T04:23:21.725Z,3.72
2023-12-22T04:25:49.236Z,3.90
2023-12-22T04:28:15.886Z,3.81
2023-12-22T04:30:42.570Z,3.81
2023-12-22T04:33:09.273Z,4.15
2023-12-22T04:35:35.887Z,4.39
2023-12-22T04:38:02.512Z,4.20
2023-12-22T04:40:29.444Z,4.02
2023-12-22T04:42:56.359Z,3.91
2023-12-22T04:45:23.119Z,4.02
2023-12-22T04:47:50.009Z,4.05
2023-12-22T04:50:17.149Z,3.90
2023-12-22T04:52:43.782Z,3.61
2023-12-22T04:55:10.418Z,4.10
2023-12-22T04:57:36.967Z,3.61
2023-12-22T05:00:04.511Z,3.27
2023-12-22T05:02:31.112Z,3.45
2023-12-22T05:04:58.093Z,3.40
2023-12-22T05:07:24.983Z,3.03
2023-12-22T05:09:53.180Z,3.08
2023-12-22T05:12:20.826Z,3.06
2023-12-22T05:14:47.507Z,2.82
2023-12-22T05:17:14.191Z,2.54
2023-12-22T05:19:40.829Z,3.23
2023-12-22T05:22:07.496Z,2.96
2023-12-22T05:24:34.105Z,3.62
2023-12-22T05:27:00.829Z,3.03
2023-12-22T05:29:27.401Z,3.34
2023-12-22T05:31:54.051Z,3.14
2023-12-22T05:34:20.779Z,3.60
2023-12-22T05:36:47.593Z,3.65
2023-12-22T05:39:14.173Z,4.16
2023-12-22T05:41:40.828Z,4.38
2023-12-22T05:44:07.709Z,3.84
2023-12-22T05:46:42.056Z,3.89
2023-12-22T05:49:09.142Z,3.44
2023-12-22T05:51:39.404Z,3.13
2023-12-22T05:54:08.513Z,3.27
2023-12-22T05:56:35.497Z,3.38
2023-12-22T05:59:02.184Z,3.29
2023-12-22T06:01:28.971Z,3.65
2023-12-22T06:03:56.024Z,2.77
2023-12-22T06:06:23.281Z,3.24
2023-12-22T06:08:50.430Z,5.78
2023-12-22T06:11:17.308Z,8.15
2023-12-22T06:13:43.946Z,3.37
2023-12-22T06:16:15.627Z,3.03
2023-12-22T06:18:43.585Z,2.82
2023-12-22T06:21:11.556Z,3.23
2023-12-22T06:23:38.717Z,3.43
2023-12-22T06:26:13.177Z,3.45
2023-12-22T06:28:41.590Z,3.43
2023-12-22T06:31:19.423Z,3.74
2023-12-22T06:33:46.417Z,3.98
2023-12-22T06:36:25.490Z,4.05
2023-12-22T06:38:54.713Z,4.00
2023-12-22T06:41:28.401Z,4.03
2023-12-22T06:43:56.965Z,3.87
2023-12-22T06:46:27.469Z,4.26
2023-12-22T06:48:56.824Z,4.21
2023-12-22T06:51:32.558Z,4.49
2023-12-22T06:54:03.481Z,3.88
2023-12-22T06:56:36.650Z,4.06
2023-12-22T06:59:04.018Z,3.70
2023-12-22T07:01:36.474Z,4.23
2023-12-22T07:04:05.798Z,4.28
2023-12-22T07:06:35.476Z,6.05
2023-12-22T07:09:22.035Z,3.79
2023-12-22T07:11:51.980Z,4.00
2023-12-22T07:14:19.069Z,4.04
2023-12-22T07:16:46.268Z,4.44
2023-12-22T07:19:14.380Z,4.12
2023-12-22T07:21:44.705Z,3.31
2023-12-22T07:24:14.866Z,3.48
2023-12-22T07:26:42.744Z,3.46
2023-12-22T07:29:09.695Z,3.99
2023-12-22T07:31:36.384Z,3.97
2023-12-22T07:34:03.342Z,3.46
2023-12-22T07:36:29.958Z,2.62
2023-12-22T07:38:58.447Z,4.13
2023-12-22T07:41:25.408Z,3.16
2023-12-22T07:43:52.012Z,2.53
2023-12-22T07:46:21.265Z,2.08
2023-12-22T07:48:48.794Z,2.36
2023-12-22T07:51:16.278Z,2.30
2023-12-22T07:53:43.196Z,2.27
2023-12-22T07:56:12.551Z,2.27
2023-12-22T07:58:39.993Z,2.32
2023-12-22T08:01:06.877Z,1.39
2023-12-22T08:03:34.615Z,1.55
2023-12-22T08:06:01.660Z,1.57
2023-12-22T08:08:28.462Z,1.75
2023-12-22T08:10:55.181Z,1.45
2023-12-22T08:13:21.808Z,1.42
2023-12-22T08:15:48.427Z,1.36
2023-12-22T08:18:15.325Z,1.85
2023-12-22T08:20:43.821Z,1.72
2023-12-22T08:23:13.882Z,1.92
2023-12-22T08:25:44.111Z,1.93
2023-12-22T08:28:13.264Z,2.14
2023-12-22T08:30:39.958Z,2.06
2023-12-22T08:33:06.670Z,2.29
2023-12-22T08:35:33.301Z,2.87
2023-12-22T08:38:00.095Z,2.11
2023-12-22T08:40:28.264Z,1.66
2023-12-22T08:42:55.770Z,2.15
2023-12-22T08:45:22.701Z,2.57
2023-12-22T08:47:49.632Z,2.87
2023-12-22T08:50:16.541Z,2.02
2023-12-22T08:52:43.270Z,2.45
2023-12-22T08:55:09.954Z,2.68
2023-12-22T08:57:36.483Z,2.36
2023-12-22T09:00:04.717Z,2.02
2023-12-22T09:02:31.485Z,1.86
2023-12-22T09:04:58.192Z,2.10
2023-12-22T09:07:25.766Z,2.59
2023-12-22T09:09:52.561Z,2.81
2023-12-22T09:12:21.244Z,3.62
2023-12-22T09:14:47.891Z,2.78
2023-12-22T09:17:14.636Z,2.56
2023-12-22T09:19:41.605Z,2.55
2023-12-22T09:22:08.196Z,2.46
2023-12-22T09:24:35.008Z,2.63
2023-12-22T09:27:03.972Z,2.58
2023-12-22T09:29:32.770Z,2.78
2023-12-22T09:31:59.869Z,3.06
2023-12-22T09:34:28.713Z,2.94
2023-12-22T09:36:57.239Z,3.17
2023-12-22T09:39:23.984Z,2.64
2023-12-22T09:41:51.912Z,2.77
2023-12-22T09:44:22.176Z,2.80
2023-12-22T09:46:51.113Z,8.63
2023-12-22T09:49:23.418Z,3.45
2023-12-22T09:51:52.574Z,3.04
2023-12-22T09:54:20.895Z,4.06
2023-12-22T09:56:51.224Z,3.43
2023-12-22T09:59:20.297Z,3.81
2023-12-22T10:01:52.018Z,3.84
2023-12-22T10:04:18.958Z,3.78
2023-12-22T10:06:49.722Z,3.53
2023-12-22T10:09:17.653Z,8.18
2023-12-22T10:11:53.116Z,9.42
2023-12-22T10:14:23.465Z,3.41
2023-12-22T10:16:52.881Z,3.52
2023-12-22T10:19:21.761Z,3.89
2023-12-22T10:21:51.793Z,3.79
2023-12-22T10:24:40.262Z,4.05
2023-12-22T10:27:07.087Z,4.16
2023-12-22T10:29:33.964Z,4.21
2023-12-22T10:32:08.437Z,4.30
2023-12-22T10:34:36.366Z,4.16
2023-12-22T10:37:03.947Z,4.21
2023-12-22T10:39:32.719Z,4.05
2023-12-22T10:42:00.795Z,3.77
2023-12-22T10:44:29.350Z,4.86
2023-12-22T10:46:57.914Z,3.87
2023-12-22T10:49:26.460Z,4.76
2023-12-22T10:51:53.762Z,3.32
2023-12-22T10:54:21.117Z,3.09
2023-12-22T10:56:48.054Z,3.66
2023-12-22T10:59:20.039Z,3.74
2023-12-22T11:01:49.415Z,3.72
2023-12-22T11:04:21.468Z,3.53
2023-12-22T11:06:56.111Z,5.33
2023-12-22T11:09:27.125Z,3.92
2023-12-22T11:11:54.249Z,3.84
2023-12-22T11:14:22.695Z,3.92
2023-12-22T11:16:52.519Z,3.77
2023-12-22T11:19:20.326Z,3.16
2023-12-22T11:21:51.866Z,3.54
2023-12-22T11:24:20.719Z,4.53
2023-12-22T11:26:52.714Z,5.13
2023-12-22T11:29:22.825Z,5.94
2023-12-22T11:31:55.517Z,3.32
2023-12-22T11:34:25.728Z,2.40
2023-12-22T11:36:54.570Z,3.04
2023-12-22T11:39:21.828Z,2.51
2023-12-22T11:41:52.725Z,2.31
2023-12-22T11:44:20.677Z,2.54
2023-12-22T11:46:48.586Z,2.12
2023-12-22T11:49:16.707Z,3.11
2023-12-22T11:51:44.605Z,1.76
2023-12-22T11:54:52.504Z,2.02
2023-12-22T11:57:37.532Z,6.05
2023-12-22T12:00:05.743Z,5.38
2023-12-22T12:02:35.574Z,2.78
2023-12-22T12:05:04.217Z,3.35
2023-12-22T12:07:41.113Z,1.45
2023-12-22T12:10:10.137Z,1.99
2023-12-22T12:12:37.620Z,1.46
2023-12-22T12:15:14.179Z,1.33
2023-12-22T12:17:43.566Z,1.38
2023-12-22T12:20:12.232Z,1.47
2023-12-22T12:22:40.340Z,1.53
2023-12-22T12:25:18.430Z,2.10
2023-12-22T12:28:07.541Z,1.13
2023-12-22T12:30:39.303Z,1.45
2023-12-22T12:33:10.143Z,1.24
2023-12-22T12:35:43.194Z,1.53
2023-12-22T12:38:12.986Z,1.15
2023-12-22T12:40:42.407Z,1.34
2023-12-22T12:43:09.712Z,1.05
2023-12-22T12:45:36.443Z,1.18
2023-12-22T12:48:06.407Z,1.53
2023-12-22T12:50:35.641Z,0.97
2023-12-22T12:53:03.537Z,0.94
2023-12-22T12:55:31.014Z,0.99
2023-12-22T12:57:57.914Z,0.96
2023-12-22T13:00:34.021Z,0.86
2023-12-22T13:03:06.163Z,1.02
2023-12-22T13:05:36.171Z,0.92
2023-12-22T13:08:11.184Z,0.88
2023-12-22T13:10:39.828Z,0.86
2023-12-22T13:13:07.041Z,0.97
2023-12-22T13:15:33.824Z,1.34
2023-12-22T13:18:00.822Z,0.78
2023-12-22T13:20:29.338Z,1.01
2023-12-22T13:22:56.722Z,0.95
2023-12-22T13:25:25.146Z,1.05
2023-12-22T13:27:53.928Z,3.39
2023-12-22T13:30:39.031Z,1.67
2023-12-22T13:33:05.959Z,1.09
2023-12-22T13:35:33.346Z,1.18
2023-12-22T13:38:00.496Z,1.23
2023-12-22T13:40:27.385Z,1.41
2023-12-22T13:42:59.473Z,1.22
2023-12-22T13:45:27.324Z,1.21
2023-12-22T13:47:54.853Z,2.14
2023-12-22T13:50:24.556Z,1.42
2023-12-22T13:52:52.400Z,1.38
2023-12-22T13:55:24.227Z,1.67
2023-12-22T13:58:02.778Z,1.47
2023-12-22T14:00:30.825Z,2.93
2023-12-22T14:02:58.294Z,1.54
2023-12-22T14:05:25.515Z,1.55
2023-12-22T14:07:53.336Z,1.62
2023-12-22T14:10:20.152Z,1.57
2023-12-22T14:12:47.012Z,1.88
2023-12-22T14:15:14.414Z,1.91
2023-12-22T14:17:43.889Z,2.08
2023-12-22T14:20:11.643Z,2.54
2023-12-22T14:22:39.406Z,1.62
2023-12-22T14:25:07.184Z,1.68
2023-12-22T14:27:33.885Z,1.42
2023-12-22T14:30:00.619Z,1.59
2023-12-22T14:32:27.355Z,1.49
2023-12-22T14:34:54.399Z,1.44
2023-12-22T14:37:22.248Z,1.89
2023-12-22T14:39:49.381Z,1.35
2023-12-22T14:42:16.090Z,1.19
2023-12-22T14:44:42.730Z,1.28
2023-12-22T14:47:12.070Z,2.81
2023-12-22T14:49:41.128Z,1.37
2023-12-22T14:52:08.080Z,1.86
2023-12-22T14:54:34.729Z,1.16
2023-12-22T14:57:01.800Z,1.35
2023-12-22T14:59:28.868Z,1.44
2023-12-22T15:01:55.739Z,1.82
2023-12-22T15:04:22.709Z,1.47
2023-12-22T15:06:52.453Z,1.49
2023-12-22T15:09:27.199Z,2.70
2023-12-22T15:11:54.580Z,1.30
2023-12-22T15:14:22.721Z,1.27
2023-12-22T15:16:52.086Z,1.06
2023-12-22T15:19:20.399Z,1.09
2023-12-22T15:21:47.281Z,1.13
2023-12-22T15:24:13.978Z,1.83
2023-12-22T15:26:40.600Z,1.24
2023-12-22T15:29:07.561Z,1.74
2023-12-22T15:31:37.103Z,1.09
2023-12-22T15:34:06.049Z,1.46
2023-12-22T15:36:32.978Z,1.31
2023-12-22T15:39:00.394Z,1.08
2023-12-22T15:41:31.411Z,1.21
2023-12-22T15:43:58.225Z,0.96
2023-12-22T15:46:24.946Z,1.07
2023-12-22T15:48:51.651Z,0.82
2023-12-22T15:51:20.649Z,1.35
2023-12-22T15:53:48.030Z,1.45
2023-12-22T15:56:16.607Z,1.12
2023-12-22T15:58:44.358Z,0.82
2023-12-22T16:01:13.908Z,1.14
2023-12-22T16:03:42.103Z,1.14
2023-12-22T16:06:09.640Z,1.62
2023-12-22T16:08:36.992Z,1.24
2023-12-22T16:11:05.679Z,1.28
2023-12-22T16:13:34.135Z,1.21
2023-12-22T16:16:03.236Z,1.34
2023-12-22T16:18:30.466Z,1.34
2023-12-22T16:20:57.922Z,1.37
2023-12-22T16:23:24.859Z,1.19
2023-12-22T16:25:53.291Z,1.27
2023-12-22T16:28:21.333Z,1.47
2023-12-22T16:30:49.517Z,3.20
2023-12-22T16:33:17.864Z,3.22
2023-12-22T16:35:44.824Z,1.35
2023-12-22T16:38:12.132Z,1.76
2023-12-22T16:40:40.369Z,1.54
2023-12-22T16:43:07.238Z,2.37
2023-12-22T16:45:33.805Z,3.58
2023-12-22T16:48:02.168Z,2.74
2023-12-22T16:50:29.233Z,3.77
2023-12-22T16:52:56.458Z,2.12
2023-12-22T16:55:23.659Z,2.03
2023-12-22T16:57:50.997Z,1.70
2023-12-22T17:00:20.724Z,1.25
2023-12-22T17:02:47.927Z,1.29
2023-12-22T17:05:15.322Z,3.89
2023-12-22T17:07:42.653Z,1.75
2023-12-22T17:10:10.172Z,2.16
2023-12-22T17:12:36.768Z,3.90
2023-12-22T17:15:05.447Z,1.58
2023-12-22T17:17:34.305Z,1.47
2023-12-22T17:20:03.180Z,1.39
2023-12-22T17:22:31.352Z,1.38
2023-12-22T17:24:58.104Z,1.63
2023-12-22T17:27:24.753Z,2.59
2023-12-22T17:29:51.391Z,3.29
2023-12-22T17:32:19.042Z,3.26
2023-12-22T17:34:45.940Z,1.48
2023-12-22T17:37:13.803Z,2.23
2023-12-22T17:39:40.411Z,4.56
2023-12-22T17:42:07.110Z,1.82
2023-12-22T17:44:33.697Z,1.92
2023-12-22T17:47:04.595Z,3.09
2023-12-22T17:49:33.324Z,2.31
2023-12-22T17:52:00.505Z,1.71
2023-12-22T17:54:27.931Z,1.30
2023-12-22T17:56:55.068Z,1.49
2023-12-22T17:59:22.219Z,2.02
2023-12-22T18:01:50.595Z,1.40
2023-12-22T18:04:17.438Z,1.36
2023-12-22T18:06:44.059Z,1.51
2023-12-22T18:09:10.578Z,1.49
2023-12-22T18:11:42.197Z,1.67
2023-12-22T18:14:09.947Z,1.94
2023-12-22T18:16:40.513Z,1.76
2023-12-22T18:19:07.332Z,1.64
2023-12-22T18:21:34.788Z,3.08
2023-12-22T18:24:01.465Z,1.92
2023-12-22T18:26:28.682Z,1.83
2023-12-22T18:28:55.504Z,1.70
2023-12-22T18:31:22.105Z,1.62
2023-12-22T18:33:49.032Z,1.74
2023-12-22T18:36:15.700Z,1.51
2023-12-22T18:38:42.512Z,1.52
2023-12-22T18:41:12.112Z,1.74
2023-12-22T18:43:39.407Z,1.81
2023-12-22T18:46:07.181Z,2.51
2023-12-22T18:48:34.044Z,1.88
2023-12-22T18:51:01.145Z,1.77
2023-12-22T18:53:27.780Z,3.02
2023-12-22T18:55:54.675Z,1.83
2023-12-22T18:58:21.559Z,1.51
2023-12-22T19:00:48.667Z,3.24
2023-12-22T19:03:15.734Z,2.12
2023-12-22T19:05:43.099Z,2.44
2023-12-22T19:08:09.991Z,1.70
2023-12-22T19:10:36.666Z,2.47
2023-12-22T19:13:03.487Z,3.38
2023-12-22T19:15:30.442Z,4.46
2023-12-22T19:17:58.624Z,2.09
2023-12-22T19:20:26.874Z,2.15
2023-12-22T19:22:53.916Z,1.68
2023-12-22T19:25:20.834Z,2.18
2023-12-22T19:27:48.742Z,1.59
2023-12-22T19:30:17.004Z,1.74
2023-12-22T19:32:46.416Z,1.71
2023-12-22T19:35:13.904Z,1.88
2023-12-22T19:37:41.014Z,2.27
2023-12-22T19:40:08.659Z,1.97
2023-12-22T19:42:35.331Z,1.63
2023-12-22T19:45:02.500Z,1.67
2023-12-22T19:47:29.171Z,2.20
2023-12-22T19:49:55.833Z,1.78
2023-12-22T19:52:22.433Z,1.71
2023-12-22T19:54:49.073Z,2.38
2023-12-22T19:57:15.788Z,1.91
2023-12-22T19:59:42.477Z,1.60
2023-12-22T20:02:09.136Z,1.68
2023-12-22T20:04:37.065Z,3.11
2023-12-22T20:07:04.094Z,1.78
2023-12-22T20:09:30.852Z,2.33
2023-12-22T20:11:58.282Z,1.61
2023-12-22T20:14:25.129Z,1.48
2023-12-22T20:16:54.279Z,1.76
2023-12-22T20:19:26.139Z,1.73
2023-12-22T20:21:52.874Z,2.11
2023-12-22T20:24:24.717Z,2.41
2023-12-22T20:26:51.713Z,1.53
2023-12-22T20:29:19.245Z,1.65
2023-12-22T20:31:46.707Z,1.49
2023-12-22T20:34:13.286Z,1.44
2023-12-22T20:36:41.297Z,1.70
2023-12-22T20:39:07.881Z,1.75
2023-12-22T20:41:34.455Z,1.63
2023-12-22T20:44:01.102Z,1.59
2023-12-22T20:46:27.723Z,1.68
2023-12-22T20:48:54.510Z,1.51
2023-12-22T20:51:21.423Z,1.60
2023-12-22T20:53:48.169Z,1.39
2023-12-22T20:56:24.760Z,1.43
2023-12-22T20:58:51.500Z,1.31
2023-12-22T21:01:19.132Z,1.51
2023-12-22T21:03:45.896Z,1.38
2023-12-22T21:06:12.857Z,1.33
2023-12-22T21:08:39.591Z,1.51
2023-12-22T21:11:09.084Z,1.47
2023-12-22T21:13:37.149Z,1.51
2023-12-22T21:16:06.950Z,1.29
2023-12-22T21:18:34.152Z,1.37
2023-12-22T21:21:05.680Z,1.40
2023-12-22T21:23:32.764Z,1.22
2023-12-22T21:26:00.035Z,1.40
2023-12-22T21:28:28.477Z,1.24
2023-12-22T21:30:55.118Z,3.21
2023-12-22T21:33:22.257Z,4.30
2023-12-22T21:35:49.333Z,1.53
2023-12-22T21:38:16.116Z,1.63
2023-12-22T21:40:42.965Z,1.60
2023-12-22T21:43:09.590Z,1.48
2023-12-22T21:45:36.615Z,1.64
2023-12-22T21:48:04.598Z,1.74
2023-12-22T21:50:31.647Z,1.79
2023-12-22T21:52:59.356Z,1.58
2023-12-22T21:55:26.087Z,1.58
2023-12-22T21:57:53.963Z,1.67
2023-12-22T22:00:20.640Z,1.70
2023-12-22T22:02:47.300Z,1.64
2023-12-22T22:05:14.016Z,1.69
2023-12-22T22:07:40.770Z,1.54
2023-12-22T22:10:10.695Z,1.70
2023-12-22T22:12:37.438Z,1.57
2023-12-22T22:15:05.032Z,1.49
2023-12-22T22:17:31.805Z,1.45
2023-12-22T22:19:58.503Z,1.42
2023-12-22T22:22:25.413Z,1.80
2023-12-22T22:24:51.990Z,1.53
2023-12-22T22:27:18.700Z,1.96
2023-12-22T22:29:45.378Z,1.85
2023-12-22T22:32:12.456Z,1.74
2023-12-22T22:34:39.182Z,1.65
2023-12-22T22:37:05.918Z,1.95
2023-12-22T22:39:32.480Z,1.82
2023-12-22T22:41:59.386Z,1.64
2023-12-22T22:44:26.004Z,1.70
2023-12-22T22:46:53.033Z,1.65
2023-12-22T22:49:21.500Z,1.72
2023-12-22T22:51:48.239Z,1.49
2023-12-22T22:54:14.818Z,1.76
2023-12-22T22:56:43.274Z,1.47
2023-12-22T22:59:10.781Z,1.85
2023-12-22T23:01:38.125Z,1.44
2023-12-22T23:04:05.052Z,0.88
2023-12-22T23:06:32.077Z,0.80
2023-12-22T23:09:01.003Z,0.71
2023-12-22T23:11:27.881Z,0.70
2023-12-22T23:13:54.611Z,0.63
2023-12-22T23:16:21.307Z,0.58
2023-12-22T23:18:47.951Z,0.55
2023-12-22T23:21:14.855Z,0.72
2023-12-22T23:23:41.487Z,0.63
2023-12-22T23:26:08.277Z,0.31
2023-12-22T23:28:34.946Z,0.67
2023-12-22T23:31:03.583Z,0.93
2023-12-22T23:33:30.216Z,0.65
2023-12-22T23:35:58.930Z,0.49
2023-12-22T23:38:26.892Z,1.46
2023-12-22T23:40:54.167Z,0.63
2023-12-22T23:43:20.768Z,0.66
2023-12-22T23:45:47.512Z,0.54
2023-12-22T23:48:14.248Z,0.73
2023-12-22T23:50:40.994Z,0.49
2023-12-22T23:53:07.635Z,0.72
2023-12-22T23:55:34.330Z,0.79
2023-12-22T23:58:00.976Z,0.54
